Time;durP1;ratioP1;P1;durP2;ratioP2;P2;SDS_P1;SDS_P2;PMS_P1;PMS_P2;Temp;Humidity;BMP_temperature;BMP_pressure;BME280_temperature;BME280_humidity;BME280_pressure;Samples;Min_cycle;Max_cycle;Signal;HPM_P1;HPM_P2
2022/11/02 00:01:18;;;;;;;0.00;0.00;;;17.10;92.70;;;;;;4003187;29;20414;-62
2022/11/02 00:04:01;;;;;;;0.00;0.00;;;17.10;92.70;;;;;;4006694;29;20065;-61
2022/11/02 00:06:43;;;;;;;0.00;0.00;;;17.10;93.00;;;;;;4016860;29;20064;-61
2022/11/02 00:09:24;;;;;;;0.00;0.00;;;17.10;92.60;;;;;;4018447;29;20209;-61
2022/11/02 00:12:06;;;;;;;0.00;0.00;;;17.10;92.70;;;;;;4018333;29;20421;-61
2022/11/02 00:14:46;;;;;;;0.00;0.00;;;17.10;92.60;;;;;;4016300;29;20478;-61
2022/11/02 00:17:29;;;;;;;0.00;0.00;;;17.10;92.60;;;;;;4017578;29;20120;-62
2022/11/02 00:20:14;;;;;;;0.00;0.00;;;17.10;92.70;;;;;;4002737;29;20090;-62
2022/11/02 00:22:57;;;;;;;0.00;0.00;;;17.10;92.70;;;;;;4012694;29;20405;-61
2022/11/02 00:25:40;;;;;;;0.25;0.25;;;17.10;92.60;;;;;;4017730;29;20505;-61
2022/11/02 00:28:21;;;;;;;0.00;0.00;;;17.10;92.70;;;;;;4014261;29;20934;-61
2022/11/02 00:31:02;;;;;;;;;;;17.10;92.70;;;;;;4018258;29;20500;-61
2022/11/02 00:33:43;;;;;;;0.00;0.00;;;17.10;92.70;;;;;;4006867;29;19939;-62
2022/11/02 00:36:26;;;;;;;0.00;0.00;;;17.00;92.60;;;;;;4017149;29;20052;-62
2022/11/02 00:39:07;;;;;;;0.00;0.00;;;17.00;92.60;;;;;;3995968;29;20124;-61
2022/11/02 00:41:48;;;;;;;0.00;0.00;;;17.00;92.70;;;;;;4017831;29;20064;-61
2022/11/02 00:44:28;;;;;;;0.00;0.00;;;17.00;92.70;;;;;;4017608;29;20398;-62
2022/11/02 00:47:11;;;;;;;0.00;0.00;;;17.00;92.70;;;;;;4006088;29;20051;-62
2022/11/02 00:49:52;;;;;;;0.00;0.00;;;17.10;92.70;;;;;;4017108;29;20124;-62
2022/11/02 00:52:34;;;;;;;0.00;0.00;;;17.00;92.60;;;;;;4005830;29;20105;-61
2022/11/02 00:55:16;;;;;;;0.65;0.52;;;17.00;92.60;;;;;;4006076;29;20504;-61
2022/11/02 00:57:57;;;;;;;0.00;0.00;;;17.00;92.60;;;;;;4003889;29;20075;-61
2022/11/02 01:00:38;;;;;;;0.00;0.00;;;17.00;92.60;;;;;;4006277;29;20186;-60
2022/11/02 01:03:19;;;;;;;0.00;0.00;;;17.00;92.70;;;;;;4006170;29;20193;-62
2022/11/02 01:06:08;;;;;;;0.00;0.00;;;17.00;92.70;;;;;;4017196;29;20515;-61
2022/11/02 01:08:51;;;;;;;0.05;0.05;;;17.00;92.70;;;;;;4005595;29;20082;-61
2022/11/02 01:11:32;;;;;;;0.00;0.00;;;17.00;92.80;;;;;;4017369;29;20508;-61
2022/11/02 01:14:13;;;;;;;0.00;0.00;;;17.00;92.80;;;;;;4013548;29;20052;-62
2022/11/02 01:16:56;;;;;;;0.00;0.00;;;17.00;92.80;;;;;;4032493;29;20124;-62
2022/11/02 01:19:37;;;;;;;0.08;0.08;;;17.00;92.80;;;;;;4032633;29;20063;-62
2022/11/02 01:22:18;;;;;;;0.08;0.08;;;17.00;92.90;;;;;;4020870;29;20059;-62
2022/11/02 01:25:00;;;;;;;0.00;0.00;;;17.00;92.90;;;;;;4012899;29;20056;-61
2022/11/02 01:27:41;;;;;;;0.40;0.40;;;16.90;92.80;;;;;;4032276;29;20056;-61
2022/11/02 01:30:22;;;;;;;0.00;0.00;;;16.90;92.80;;;;;;4032191;29;20056;-63
2022/11/02 01:33:05;;;;;;;17.10;2.65;;;16.90;93.30;;;;;;4010175;29;20412;-62
2022/11/02 01:35:46;;;;;;;0.00;0.00;;;16.90;92.90;;;;;;4020313;29;20064;-61
2022/11/02 01:38:27;;;;;;;37.05;3.22;;;16.90;92.90;;;;;;4031524;29;20585;-62
2022/11/02 01:41:11;;;;;;;0.00;0.00;;;16.90;92.90;;;;;;4031852;29;20048;-61
2022/11/02 01:43:55;;;;;;;0.00;0.00;;;16.90;93.00;;;;;;4015966;29;20113;-62
2022/11/02 01:46:42;;;;;;;0.03;0.03;;;16.90;92.90;;;;;;4005656;29;20067;-61
2022/11/02 01:49:23;;;;;;;0.00;0.00;;;16.90;92.90;;;;;;4016853;29;20056;-61
2022/11/02 01:52:08;;;;;;;0.00;0.00;;;16.90;92.90;;;;;;4016804;29;20401;-61
2022/11/02 01:54:54;;;;;;;0.00;0.00;;;16.90;93.10;;;;;;4028448;29;20119;-61
2022/11/02 01:57:38;;;;;;;0.00;0.00;;;16.90;92.90;;;;;;4031971;29;20622;-61
2022/11/02 02:00:19;;;;;;;0.00;0.00;;;16.90;93.00;;;;;;4020536;29;20063;-60
2022/11/02 02:03:04;;;;;;;;;;;16.90;93.00;;;;;;4032275;29;20185;-61
2022/11/02 02:05:48;;;;;;;0.00;0.00;;;16.90;93.00;;;;;;4019673;29;20482;-61
2022/11/02 02:08:32;;;;;;;0.00;0.00;;;16.80;93.10;;;;;;4020453;29;20166;-62
2022/11/02 02:11:26;;;;;;;0.10;0.10;;;16.80;93.10;;;;;;4020451;29;20096;-61
2022/11/02 02:14:11;;;;;;;0.30;0.30;;;16.80;93.10;;;;;;4025862;29;20069;-61
2022/11/02 02:17:24;;;;;;;0.00;0.00;;;16.80;93.20;;;;;;4005030;29;20133;-62
2022/11/02 02:20:17;;;;;;;0.00;0.00;;;16.80;93.20;;;;;;4004895;29;20056;-62
2022/11/02 02:23:33;;;;;;;0.00;0.00;;;16.80;93.20;;;;;;4004852;29;20133;-61
2022/11/02 02:26:51;;;;;;;0.00;0.00;;;16.80;93.20;;;;;;4008104;29;20144;-61
2022/11/02 02:29:39;;;;;;;0.00;0.00;;;16.80;93.20;;;;;;4004080;29;20060;-61
2022/11/02 02:32:28;;;;;;;0.00;0.00;;;16.80;93.20;;;;;;4004912;29;20064;-61
2022/11/02 02:35:16;;;;;;;0.00;0.00;;;16.80;93.30;;;;;;4004976;29;20522;-62
2022/11/02 02:38:00;;;;;;;0.00;0.00;;;16.80;93.30;;;;;;4015159;29;20124;-62
2022/11/02 02:40:48;;;;;;;0.00;0.00;;;16.80;93.30;;;;;;4004007;29;20061;-61
2022/11/02 02:43:35;;;;;;;0.00;0.00;;;16.80;93.30;;;;;;4016018;29;20145;-60
2022/11/02 02:46:21;;;;;;;0.00;0.00;;;16.80;93.30;;;;;;4004767;29;20120;-62
2022/11/02 02:49:07;;;;;;;0.00;0.00;;;16.80;93.30;;;;;;4005177;29;20121;-62
2022/11/02 02:51:48;;;;;;;0.55;0.55;;;16.80;93.30;;;;;;4015858;29;20079;-61
2022/11/02 02:54:34;;;;;;;0.00;0.00;;;16.80;93.30;;;;;;4015861;29;20203;-61
2022/11/02 02:57:18;;;;;;;0.00;0.00;;;16.80;93.30;;;;;;4016081;29;20166;-61
2022/11/02 02:59:59;;;;;;;0.00;0.00;;;16.70;93.20;;;;;;4004940;29;20639;-61
2022/11/02 03:02:59;;;;;;;0.00;0.00;;;16.70;93.20;;;;;;3979524;29;20382;-62
2022/11/02 03:05:40;;;;;;;0.00;0.00;;;16.70;93.20;;;;;;3999685;29;20509;-61
2022/11/02 03:08:23;;;;;;;0.00;0.00;;;16.80;93.30;;;;;;3989898;29;20091;-61
2022/11/02 03:11:13;;;;;;;0.00;0.00;;;16.80;93.20;;;;;;3997606;29;20358;-61
2022/11/02 03:14:06;;;;;;;0.00;0.00;;;16.80;93.10;;;;;;3993389;29;20064;-61
2022/11/02 03:17:10;;;;;;;0.00;0.00;;;16.70;93.10;;;;;;4004258;29;20510;-61
2022/11/02 03:19:59;;;;;;;0.00;0.00;;;16.70;93.10;;;;;;4003486;29;20067;-61
2022/11/02 03:22:48;;;;;;;0.00;0.00;;;16.70;92.90;;;;;;3988891;29;20517;-61
2022/11/02 03:25:36;;;;;;;0.00;0.00;;;16.70;93.00;;;;;;3989618;29;20190;-61
2022/11/02 03:28:24;;;;;;;0.00;0.00;;;16.70;93.00;;;;;;4002204;29;20059;-61
2022/11/02 03:31:11;;;;;;;3.10;2.15;;;16.70;93.00;;;;;;4004545;29;20442;-61
2022/11/02 03:33:58;;;;;;;0.00;0.00;;;16.70;93.00;;;;;;4004389;29;20061;-62
2022/11/02 03:36:46;;;;;;;0.00;0.00;;;16.70;93.00;;;;;;4015615;29;20129;-62
2022/11/02 03:39:32;;;;;;;0.00;0.00;;;16.70;93.00;;;;;;4004663;29;20144;-61
2022/11/02 03:42:19;;;;;;;0.00;0.00;;;16.70;93.00;;;;;;3996274;29;20056;-61
2022/11/02 03:45:07;;;;;;;0.08;0.08;;;16.70;93.00;;;;;;4004424;29;20092;-61
2022/11/02 03:47:53;;;;;;;0.00;0.00;;;16.70;93.00;;;;;;4004070;29;20126;-61
2022/11/02 03:50:37;;;;;;;0.00;0.00;;;16.70;93.00;;;;;;4006791;29;20189;-60
2022/11/02 03:53:26;;;;;;;0.00;0.00;;;16.70;93.40;;;;;;4006388;29;20125;-61
2022/11/02 03:56:12;;;;;;;0.00;0.00;;;16.70;93.00;;;;;;4007333;29;20064;-61
2022/11/02 03:58:53;;;;;;;0.35;0.35;;;16.70;93.00;;;;;;3992118;29;20061;-61
2022/11/02 04:01:40;;;;;;;0.00;0.00;;;16.60;93.00;;;;;;3996077;29;20105;-61
2022/11/02 04:04:21;;;;;;;0.10;0.10;;;16.60;92.90;;;;;;4007003;29;20057;-61
2022/11/02 04:07:03;;;;;;;0.00;0.00;;;16.60;92.90;;;;;;4007184;29;20508;-61
2022/11/02 04:09:45;;;;;;;0.00;0.00;;;16.60;92.90;;;;;;4007184;29;20069;-61
2022/11/02 04:15:33;;;;;;;0.00;0.00;;;16.60;92.80;;;;;;3980002;29;20409;-62
2022/11/02 04:21:14;;;;;;;0.00;0.00;;;16.60;92.80;;;;;;4018037;29;20060;-61
2022/11/02 04:26:55;;;;;;;0.00;0.00;;;16.60;92.80;;;;;;3990924;29;20101;-62
2022/11/02 04:29:36;;;;;;;0.00;0.00;;;16.50;92.70;;;;;;3991612;29;20074;-62
2022/11/02 04:33:31;;;;;;;0.00;0.00;;;16.60;92.80;;;;;;4001545;29;20060;-61
2022/11/02 04:35:21;;;;;;;0.00;0.00;;;16.60;92.60;;;;;;4001307;29;20088;-61
2022/11/02 04:44:05;;;;;;;0.00;0.00;;;16.50;92.40;;;;;;3976454;29;20053;-61
2022/11/02 04:46:46;;;;;;;0.00;0.00;;;16.50;92.40;;;;;;3976286;29;20065;-62
2022/11/02 04:49:27;;;;;;;0.00;0.00;;;16.50;92.40;;;;;;3992651;29;20052;-61
2022/11/02 04:52:09;;;;;;;0.00;0.00;;;16.50;92.40;;;;;;3991527;29;20202;-61
2022/11/02 04:54:55;;;;;;;0.00;0.00;;;16.50;92.40;;;;;;4001833;29;20125;-61
2022/11/02 04:57:36;;;;;;;0.00;0.00;;;16.50;92.40;;;;;;3991198;29;20179;-61
2022/11/02 05:00:20;;;;;;;0.00;0.00;;;16.50;92.40;;;;;;3990133;29;20099;-61
2022/11/02 05:03:02;;;;;;;0.00;0.00;;;16.50;92.50;;;;;;3990796;29;20048;-61
2022/11/02 05:05:45;;;;;;;0.10;0.10;;;16.50;92.50;;;;;;4002169;29;20163;-60
2022/11/02 05:08:26;;;;;;;0.00;0.00;;;16.50;92.50;;;;;;3987420;29;20049;-61
2022/11/02 05:11:07;;;;;;;0.00;0.00;;;16.50;92.60;;;;;;4001665;29;20061;-61
2022/11/02 05:13:48;;;;;;;;;;;16.50;92.60;;;;;;3978545;29;20415;-61
2022/11/02 05:16:31;;;;;;;;;;;16.50;92.50;;;;;;3967953;29;20065;-61
2022/11/02 05:19:12;;;;;;;0.00;0.00;;;16.50;92.30;;;;;;4005216;29;19935;-61
2022/11/02 05:21:53;;;;;;;0.00;0.00;;;16.50;92.40;;;;;;4014732;29;20142;-61
2022/11/02 05:24:34;;;;;;;0.00;0.00;;;16.40;92.40;;;;;;4006102;29;20297;-61
2022/11/02 05:27:17;;;;;;;0.00;0.00;;;16.40;92.40;;;;;;3995358;29;20413;-61
2022/11/02 05:29:59;;;;;;;0.00;0.00;;;16.40;92.50;;;;;;3993101;29;20060;-60
2022/11/02 05:32:42;;;;;;;0.00;0.00;;;16.40;92.60;;;;;;4005797;29;20062;-61
2022/11/02 05:35:24;;;;;;;0.08;0.08;;;16.40;92.50;;;;;;4005627;29;20055;-61
2022/11/02 05:38:07;;;;;;;0.00;0.00;;;16.40;92.50;;;;;;4005598;29;20415;-60
2022/11/02 05:40:52;;;;;;;0.00;0.00;;;16.40;92.50;;;;;;3990661;29;20105;-61
2022/11/02 05:43:33;;;;;;;0.00;0.00;;;16.40;92.50;;;;;;3990703;29;20060;-60
2022/11/02 05:46:17;;;;;;;0.00;0.00;;;16.40;92.50;;;;;;4000708;29;20064;-61
2022/11/02 05:49:00;;;;;;;0.10;0.10;;;16.40;92.50;;;;;;4016124;29;20084;-61
2022/11/02 05:51:40;;;;;;;0.00;0.00;;;16.40;92.50;;;;;;4016516;29;20060;-61
2022/11/02 05:54:21;;;;;;;0.00;0.00;;;16.40;92.50;;;;;;4016771;29;20055;-60
2022/11/02 05:57:02;;;;;;;0.00;0.00;;;16.40;92.60;;;;;;4016690;29;20064;-61
2022/11/02 05:59:43;;;;;;;0.00;0.00;;;16.40;92.60;;;;;;4016261;29;20067;-61
2022/11/02 06:02:25;;;;;;;0.00;0.00;;;16.40;92.60;;;;;;4016550;29;20060;-61
2022/11/02 06:05:08;;;;;;;0.00;0.00;;;16.40;92.50;;;;;;4016554;29;20125;-61
2022/11/02 06:07:49;;;;;;;0.00;0.00;;;16.40;92.60;;;;;;4016622;29;20060;-60
2022/11/02 06:10:31;;;;;;;0.10;0.10;;;16.40;92.60;;;;;;4001246;29;20102;-61
2022/11/02 06:13:12;;;;;;;0.00;0.00;;;16.40;92.60;;;;;;4015426;29;20060;-61
2022/11/02 06:15:53;;;;;;;0.00;0.00;;;16.40;92.60;;;;;;4000992;29;20069;-61
2022/11/02 06:18:33;;;;;;;0.00;0.00;;;16.40;92.60;;;;;;4000916;29;20049;-61
2022/11/02 06:21:16;;;;;;;0.00;0.00;;;16.40;92.60;;;;;;4001265;29;20538;-61
2022/11/02 06:23:57;;;;;;;0.00;0.00;;;16.40;92.60;;;;;;4001233;29;20061;-61
2022/11/02 06:26:38;;;;;;;0.00;0.00;;;16.40;92.60;;;;;;4001298;29;20069;-62
2022/11/02 06:29:19;;;;;;;0.00;0.00;;;16.40;92.60;;;;;;4001271;29;20517;-61
2022/11/02 06:32:00;;;;;;;0.00;0.00;;;16.40;92.80;;;;;;4001110;29;20089;-62
2022/11/02 06:34:41;;;;;;;0.00;0.00;;;16.40;93.00;;;;;;4001737;29;20060;-62
2022/11/02 06:37:24;;;;;;;0.00;0.00;;;16.50;92.90;;;;;;4001498;29;20060;-62
2022/11/02 06:40:06;;;;;;;0.08;0.08;;;16.50;92.80;;;;;;3987010;29;20118;-62
2022/11/02 06:42:46;;;;;;;;;;;16.60;92.60;;;;;;4001569;29;20059;-62
2022/11/02 06:45:43;;;;;;;0.45;0.45;;;16.60;92.40;;;;;;4003000;29;20097;-61
2022/11/02 06:48:25;;;;;;;0.00;0.00;;;16.50;92.30;;;;;;3989711;29;20057;-62
2022/11/02 06:51:12;;;;;;;0.00;0.00;;;16.50;92.30;;;;;;4010560;29;20061;-60
2022/11/02 06:53:55;;;;;;;0.00;0.00;;;16.50;92.20;;;;;;4016020;29;20508;-60
2022/11/02 06:56:36;;;;;;;0.00;0.00;;;16.50;92.20;;;;;;4000924;29;20060;-61
2022/11/02 06:59:17;;;;;;;0.00;0.00;;;16.40;92.20;;;;;;4001131;29;20070;-61
2022/11/02 07:01:58;;;;;;;0.00;0.00;;;16.40;92.10;;;;;;3999873;29;20228;-60
2022/11/02 07:04:38;;;;;;;0.00;0.00;;;16.40;92.10;;;;;;3993533;29;20114;-67
2022/11/02 07:07:20;;;;;;;0.00;0.00;;;16.40;92.10;;;;;;4000988;29;20535;-61
2022/11/02 07:10:03;;;;;;;0.00;0.00;;;16.40;92.20;;;;;;3976742;29;20068;-61
2022/11/02 07:12:44;;;;;;;14.05;1.77;;;16.40;92.00;;;;;;4016044;29;20064;-61
2022/11/02 07:15:26;;;;;;;0.00;0.00;;;16.30;92.00;;;;;;4005596;29;20429;-61
2022/11/02 07:18:07;;;;;;;0.00;0.00;;;16.30;92.00;;;;;;4003316;29;20059;-60
2022/11/02 07:20:48;;;;;;;0.13;0.13;;;16.30;92.00;;;;;;4015726;29;20562;-61
2022/11/02 07:23:29;;;;;;;0.00;0.00;;;16.30;92.00;;;;;;4014789;29;20072;-61
2022/11/02 07:26:11;;;;;;;0.00;0.00;;;16.30;91.90;;;;;;4006771;29;20060;-61
2022/11/02 07:28:52;;;;;;;1.35;1.35;;;16.30;91.90;;;;;;4018392;29;20065;-61
2022/11/02 07:31:38;;;;;;;0.30;0.30;;;16.30;91.90;;;;;;4018454;29;20438;-61
2022/11/02 07:34:19;;;;;;;0.00;0.00;;;16.30;91.90;;;;;;4018652;29;20068;-61
2022/11/02 07:37:00;;;;;;;0.00;0.00;;;16.30;91.90;;;;;;4006873;29;20056;-61
2022/11/02 07:39:40;;;;;;;0.20;0.20;;;16.30;92.30;;;;;;4018236;29;20072;-61
2022/11/02 07:42:23;;;;;;;0.00;0.00;;;16.30;91.90;;;;;;4018631;29;20061;-61
2022/11/02 07:45:05;;;;;;;0.00;0.00;;;16.30;91.90;;;;;;4007583;29;20049;-61
2022/11/02 07:47:46;;;;;;;;;;;16.30;91.90;;;;;;4007173;29;20065;-61
2022/11/02 07:50:27;;;;;;;0.00;0.00;;;16.30;91.90;;;;;;4015691;29;19938;-63
2022/11/02 07:53:09;;;;;;;0.20;0.20;;;16.20;91.90;;;;;;4016078;29;20104;-62
2022/11/02 07:55:50;;;;;;;0.08;0.08;;;16.30;92.10;;;;;;4015911;29;20178;-62
2022/11/02 07:58:33;;;;;;;0.00;0.00;;;16.30;92.20;;;;;;4016196;29;20064;-62
2022/11/02 08:01:14;;;;;;;0.00;0.00;;;16.30;92.40;;;;;;4015529;29;20512;-62
2022/11/02 08:03:55;;;;;;;0.00;0.00;;;16.40;92.50;;;;;;4016324;29;20052;-61
2022/11/02 08:06:36;;;;;;;0.50;0.50;;;16.40;92.50;;;;;;4015716;29;20084;-61
2022/11/02 08:09:18;;;;;;;0.38;0.38;;;16.40;92.40;;;;;;4015536;29;20092;-61
2022/11/02 08:11:58;;;;;;;0.00;0.00;;;16.40;92.30;;;;;;4015488;29;20056;-60
2022/11/02 08:14:41;;;;;;;0.00;0.00;;;16.40;92.30;;;;;;4015317;29;20077;-60
2022/11/02 08:17:23;;;;;;;0.00;0.00;;;16.40;92.30;;;;;;4015334;29;20069;-60
2022/11/02 08:20:04;;;;;;;0.00;0.00;;;16.40;92.30;;;;;;4016016;29;20064;-61
2022/11/02 08:22:45;;;;;;;0.00;0.00;;;16.40;92.30;;;;;;4003587;29;20117;-60
2022/11/02 08:25:26;;;;;;;0.83;0.83;;;16.40;92.30;;;;;;4015955;29;20099;-60
2022/11/02 08:28:11;;;;;;;0.28;0.28;;;16.40;92.30;;;;;;4004134;29;20072;-60
2022/11/02 08:30:54;;;;;;;0.45;0.45;;;16.40;92.30;;;;;;4015172;29;20063;-62
2022/11/02 08:33:35;;;;;;;0.00;0.00;;;16.40;92.40;;;;;;3992902;29;20056;-63
2022/11/02 08:36:16;;;;;;;0.00;0.00;;;16.40;92.40;;;;;;4014014;29;20061;-63
2022/11/02 08:38:57;;;;;;;0.00;0.00;;;16.40;92.50;;;;;;4015451;29;20518;-62
2022/11/02 08:41:38;;;;;;;0.00;0.00;;;16.40;92.50;;;;;;4015488;29;20221;-63
2022/11/02 08:44:19;;;;;;;0.00;0.00;;;16.40;92.40;;;;;;4015744;29;20382;-63
2022/11/02 08:47:01;;;;;;;1.05;1.05;;;16.40;92.40;;;;;;4014741;29;20512;-62
2022/11/02 08:49:43;;;;;;;0.00;0.00;;;16.40;92.50;;;;;;4004226;29;20493;-62
2022/11/02 08:52:23;;;;;;;0.10;0.10;;;16.40;92.60;;;;;;4015031;29;20069;-61
2022/11/02 08:55:05;;;;;;;0.00;0.00;;;16.40;92.60;;;;;;4015579;29;20156;-61
2022/11/02 08:57:47;;;;;;;0.00;0.00;;;16.40;92.60;;;;;;4015236;29;20816;-59
2022/11/02 09:00:29;;;;;;;0.00;0.00;;;16.40;92.60;;;;;;4014921;29;20197;-59
2022/11/02 09:03:13;;;;;;;0.00;0.00;;;16.40;92.70;;;;;;4014903;29;20060;-59
2022/11/02 09:05:58;;;;;;;0.00;0.00;;;16.40;92.70;;;;;;4003155;29;20157;-60
2022/11/02 09:08:39;;;;;;;0.00;0.00;;;16.40;92.70;;;;;;4014567;29;20087;-59
2022/11/02 09:11:20;;;;;;;0.38;0.38;;;16.40;93.10;;;;;;4014481;29;20425;-59
2022/11/02 09:14:02;;;;;;;0.00;0.00;;;16.40;92.80;;;;;;4017263;29;20202;-59
2022/11/02 09:16:42;;;;;;;;;;;16.40;92.80;;;;;;4018729;29;20056;-59
2022/11/02 09:19:25;;;;;;;0.88;0.88;;;16.40;93.20;;;;;;4015260;29;20479;-59
2022/11/02 09:22:06;;;;;;;0.00;0.00;;;16.40;92.80;;;;;;3995241;29;20202;-59
2022/11/02 09:24:47;;;;;;;0.00;0.00;;;16.40;92.80;;;;;;4013392;29;20153;-59
2022/11/02 09:27:28;;;;;;;0.00;0.00;;;16.40;92.80;;;;;;4011616;29;21181;-59
2022/11/02 09:30:11;;;;;;;0.00;0.00;;;16.40;92.90;;;;;;4000100;29;20509;-59
2022/11/02 09:32:55;;;;;;;0.00;0.00;;;16.40;92.90;;;;;;4013698;29;20072;-59
2022/11/02 09:35:44;;;;;;;0.00;0.00;;;16.40;92.90;;;;;;4030006;29;20421;-60
2022/11/02 09:38:25;;;;;;;0.00;0.00;;;16.40;92.90;;;;;;4026284;29;20056;-59
2022/11/02 09:41:13;;;;;;;0.10;0.10;;;16.50;92.80;;;;;;4015312;29;20524;-59
2022/11/02 09:44:01;;;;;;;0.00;0.00;;;16.50;93.40;;;;;;4006874;29;20206;-60
2022/11/02 09:46:46;;;;;;;0.00;0.00;;;16.50;94.30;;;;;;4001217;29;20493;-59
2022/11/02 09:49:33;;;;;;;0.00;0.00;;;16.50;94.70;;;;;;4012581;29;20064;-60
2022/11/02 09:52:24;;;;;;;0.70;0.70;;;16.50;94.50;;;;;;4001999;29;20414;-59
2022/11/02 09:55:14;;;;;;;0.00;0.00;;;16.50;94.00;;;;;;4014151;29;20204;-59
2022/11/02 09:58:01;;;;;;;0.40;0.40;;;16.50;93.50;;;;;;4014285;29;20060;-59
2022/11/02 10:00:48;;;;;;;0.00;0.00;;;16.50;92.90;;;;;;4012284;29;20137;-59
2022/11/02 10:03:41;;;;;;;0.00;0.00;;;16.50;92.80;;;;;;4008388;29;20109;-59
2022/11/02 10:06:24;;;;;;;0.00;0.00;;;16.50;92.50;;;;;;4005973;29;20048;-59
2022/11/02 10:09:14;;;;;;;0.00;0.00;;;16.50;92.40;;;;;;4005422;29;20144;-59
2022/11/02 10:12:02;;;;;;;0.00;0.00;;;16.50;92.20;;;;;;4005247;29;20064;-59
2022/11/02 10:14:51;;;;;;;0.00;0.00;;;16.50;91.90;;;;;;4026350;29;20064;-59
2022/11/02 10:17:36;;;;;;;0.00;0.00;;;16.50;91.70;;;;;;4000981;29;20402;-59
2022/11/02 10:20:24;;;;;;;11.50;2.42;;;16.50;91.40;;;;;;3999876;29;20885;-59
2022/11/02 10:23:08;;;;;;;0.00;0.00;;;16.50;91.30;;;;;;3998825;29;20053;-60
2022/11/02 10:25:50;;;;;;;0.00;0.00;;;16.40;91.10;;;;;;3999117;29;20073;-59
2022/11/02 10:28:35;;;;;;;0.00;0.00;;;16.40;90.80;;;;;;3998771;29;20471;-59
2022/11/02 10:31:25;;;;;;;0.00;0.00;;;16.40;90.40;;;;;;4000169;29;20061;-59
2022/11/02 10:34:17;;;;;;;0.00;0.00;;;16.40;90.50;;;;;;3999395;29;20057;-59
2022/11/02 10:37:13;;;;;;;0.00;0.00;;;16.40;90.50;;;;;;4028289;29;20071;-60
2022/11/02 10:40:03;;;;;;;0.15;0.15;;;16.40;90.50;;;;;;4028732;29;20514;-59
2022/11/02 10:42:58;;;;;;;0.00;0.00;;;16.40;90.30;;;;;;4012920;29;20635;-60
2022/11/02 10:45:55;;;;;;;0.00;0.00;;;16.40;90.40;;;;;;4000854;29;20064;-59
2022/11/02 10:48:43;;;;;;;0.00;0.00;;;16.40;90.60;;;;;;3998703;29;20060;-61
2022/11/02 10:51:24;;;;;;;0.00;0.00;;;16.40;90.30;;;;;;3998822;29;20461;-59
2022/11/02 10:54:12;;;;;;;0.00;0.00;;;16.40;90.30;;;;;;4000063;29;20090;-59
2022/11/02 10:56:56;;;;;;;0.00;0.00;;;16.40;90.20;;;;;;4014000;29;20060;-59
2022/11/02 10:59:39;;;;;;;0.00;0.00;;;16.40;90.60;;;;;;4013769;29;20085;-59
2022/11/02 11:02:20;;;;;;;0.00;0.00;;;16.40;90.20;;;;;;4014571;29;20064;-60
2022/11/02 11:05:13;;;;;;;0.00;0.00;;;16.40;89.80;;;;;;4005484;29;20051;-59
2022/11/02 11:07:54;;;;;;;0.00;0.00;;;16.50;89.80;;;;;;3997476;29;20159;-60
2022/11/02 11:10:38;;;;;;;0.55;0.55;;;16.50;89.30;;;;;;3999118;29;20179;-59
2022/11/02 11:13:23;;;;;;;0.00;0.00;;;16.50;89.10;;;;;;4013008;29;20403;-59
2022/11/02 11:16:40;;;;;;;0.00;0.00;;;16.50;88.00;;;;;;4006794;29;20516;-59
2022/11/02 11:19:24;;;;;;;0.00;0.00;;;16.50;87.90;;;;;;4013071;29;20545;-59
2022/11/02 11:22:26;;;;;;;0.10;0.10;;;16.60;87.80;;;;;;4013570;29;20311;-59
2022/11/02 11:25:22;;;;;;;0.00;0.00;;;16.60;87.30;;;;;;4009977;29;20061;-59
2022/11/02 11:28:22;;;;;;;5.28;1.20;;;16.60;86.90;;;;;;4012974;29;20072;-59
2022/11/02 11:31:09;;;;;;;0.00;0.00;;;16.60;87.10;;;;;;4013186;29;20071;-60
2022/11/02 11:33:54;;;;;;;0.00;0.00;;;16.60;87.10;;;;;;4013488;29;20060;-59
2022/11/02 11:36:36;;;;;;;0.00;0.00;;;16.60;87.20;;;;;;4010619;29;20125;-59
2022/11/02 11:39:25;;;;;;;0.00;0.00;;;16.60;87.00;;;;;;4013143;29;20060;-60
2022/11/02 11:42:16;;;;;;;0.17;0.17;;;16.60;86.60;;;;;;4011003;29;20055;-60
2022/11/02 11:45:01;;;;;;;0.00;0.00;;;16.60;86.30;;;;;;4016969;29;20412;-60
2022/11/02 11:47:43;;;;;;;0.00;0.00;;;16.70;86.20;;;;;;4010781;29;20064;-60
2022/11/02 11:50:25;;;;;;;0.00;0.00;;;16.60;86.30;;;;;;4012989;29;20137;-59
2022/11/02 11:53:24;;;;;;;0.00;0.00;;;16.60;86.20;;;;;;4012921;29;20133;-60
2022/11/02 11:56:05;;;;;;;0.32;0.32;;;16.70;86.40;;;;;;4012828;29;20060;-59
2022/11/02 11:58:51;;;;;;;0.00;0.00;;;16.60;86.30;;;;;;4013048;29;20084;-60
2022/11/02 12:01:39;;;;;;;0.08;0.08;;;16.60;85.50;;;;;;4013260;29;20113;-59
2022/11/02 12:04:28;;;;;;;0.00;0.00;;;16.60;85.70;;;;;;4010726;29;20068;-60
2022/11/02 12:07:39;;;;;;;0.00;0.00;;;16.60;86.00;;;;;;4001907;29;20064;-60
2022/11/02 12:10:26;;;;;;;0.00;0.00;;;16.60;86.10;;;;;;4012388;29;20058;-60
2022/11/02 12:13:20;;;;;;;0.00;0.00;;;16.60;85.90;;;;;;4015745;29;20137;-60
2022/11/02 12:16:14;;;;;;;0.20;0.20;;;16.60;85.30;;;;;;4015072;29;20061;-60
2022/11/02 12:19:17;;;;;;;0.00;0.00;;;16.60;84.60;;;;;;4014349;29;20060;-60
2022/11/02 12:22:07;;;;;;;0.10;0.10;;;16.60;83.60;;;;;;4014401;29;20425;-60
2022/11/02 12:25:16;;;;;;;0.10;0.10;;;16.60;82.80;;;;;;4015332;29;20063;-63
2022/11/02 12:28:07;;;;;;;0.00;0.00;;;16.60;82.20;;;;;;4014780;29;20056;-60
2022/11/02 12:30:58;;;;;;;0.00;0.00;;;16.70;82.70;;;;;;4014720;29;20141;-61
2022/11/02 12:33:57;;;;;;;0.00;0.00;;;16.70;81.00;;;;;;4012334;29;20128;-60
2022/11/02 12:36:48;;;;;;;0.00;0.00;;;16.70;80.60;;;;;;4014691;29;20068;-60
2022/11/02 12:40:06;;;;;;;0.00;0.00;;;16.70;80.50;;;;;;4003347;29;20080;-60
2022/11/02 12:42:55;;;;;;;0.00;0.00;;;16.70;80.30;;;;;;4014326;29;20133;-61
2022/11/02 12:45:46;;;;;;;0.00;0.00;;;16.70;80.20;;;;;;4003996;29;20180;-60
2022/11/02 12:48:40;;;;;;;0.00;0.00;;;16.70;80.20;;;;;;4015372;29;20607;-60
2022/11/02 12:51:27;;;;;;;0.00;0.00;;;16.70;80.20;;;;;;4003169;29;20186;-60
2022/11/02 12:54:11;;;;;;;0.00;0.00;;;16.80;80.20;;;;;;4014697;29;20052;-60
2022/11/02 12:56:54;;;;;;;0.00;0.00;;;16.80;80.10;;;;;;4014906;29;20277;-60
2022/11/02 12:59:40;;;;;;;0.00;0.00;;;16.80;80.00;;;;;;4015607;29;20516;-61
2022/11/02 13:02:27;;;;;;;0.00;0.00;;;16.80;79.40;;;;;;4015262;29;20064;-60
2022/11/02 13:05:12;;;;;;;0.00;0.00;;;16.80;78.90;;;;;;4014569;29;20060;-61
2022/11/02 13:08:00;;;;;;;0.00;0.00;;;16.90;78.90;;;;;;4014520;29;20421;-60
2022/11/02 13:10:47;;;;;;;0.00;0.00;;;16.90;78.60;;;;;;4015113;29;20068;-60
2022/11/02 13:13:38;;;;;;;0.00;0.00;;;16.90;78.40;;;;;;4014915;29;20068;-61
2022/11/02 13:16:26;;;;;;;0.00;0.00;;;16.90;77.90;;;;;;4016670;29;20154;-60
2022/11/02 13:19:15;;;;;;;0.00;0.00;;;16.90;77.70;;;;;;4014995;29;20060;-63
2022/11/02 13:21:57;;;;;;;2.65;1.95;;;16.90;77.90;;;;;;4014250;29;20065;-63
2022/11/02 13:24:43;;;;;;;1.50;1.30;;;16.90;77.80;;;;;;4014871;29;20061;-63
2022/11/02 13:27:31;;;;;;;0.00;0.00;;;16.90;77.80;;;;;;4014343;29;20060;-62
2022/11/02 13:30:18;;;;;;;0.00;0.00;;;17.00;78.10;;;;;;4014312;29;20140;-63
2022/11/02 13:33:04;;;;;;;0.00;0.00;;;17.00;77.90;;;;;;4014071;29;20944;-63
2022/11/02 13:35:46;;;;;;;0.00;0.00;;;17.00;78.10;;;;;;4014167;29;20053;-63
2022/11/02 13:38:31;;;;;;;0.00;0.00;;;17.00;78.20;;;;;;4002852;29;20196;-63
2022/11/02 13:41:29;;;;;;;0.00;0.00;;;17.00;78.30;;;;;;4014565;29;20064;-63
2022/11/02 13:44:36;;;;;;;0.00;0.00;;;17.00;78.70;;;;;;4013590;29;20075;-63
2022/11/02 13:47:42;;;;;;;0.00;0.00;;;17.10;79.10;;;;;;4014181;29;20174;-63
2022/11/02 13:50:26;;;;;;;0.20;0.20;;;17.10;78.90;;;;;;4014561;29;20141;-64
2022/11/02 13:53:14;;;;;;;0.00;0.00;;;17.10;78.70;;;;;;4013937;29;20105;-63
2022/11/02 13:55:59;;;;;;;0.00;0.00;;;17.10;78.90;;;;;;4013959;29;20060;-63
2022/11/02 13:58:47;;;;;;;0.00;0.00;;;17.10;78.70;;;;;;4014693;29;20630;-63
2022/11/02 14:01:31;;;;;;;0.00;0.00;;;17.10;78.70;;;;;;4014447;29;20108;-63
2022/11/02 14:04:14;;;;;;;1.00;1.00;;;17.20;78.60;;;;;;4014032;29;20064;-63
2022/11/02 14:07:00;;;;;;;2.28;1.13;;;17.20;78.30;;;;;;4002770;29;20060;-63
2022/11/02 14:09:44;;;;;;;0.00;0.00;;;17.20;78.00;;;;;;4013823;29;20064;-63
2022/11/02 14:12:39;;;;;;;0.00;0.00;;;17.20;77.80;;;;;;4013763;29;20057;-63
2022/11/02 14:15:52;;;;;;;0.22;0.22;;;17.20;77.70;;;;;;4013291;29;20061;-63
2022/11/02 14:18:33;;;;;;;0.00;0.00;;;17.20;77.70;;;;;;4008844;29;20069;-63
2022/11/02 14:21:41;;;;;;;0.00;0.00;;;17.20;78.20;;;;;;4021575;29;20056;-63
2022/11/02 14:24:59;;;;;;;0.00;0.00;;;17.20;76.90;;;;;;4029564;29;20056;-63
2022/11/02 14:27:43;;;;;;;0.30;0.30;;;17.20;76.50;;;;;;4029404;29;20067;-63
2022/11/02 14:30:44;;;;;;;0.00;0.00;;;17.20;76.20;;;;;;4024007;29;20060;-63
2022/11/02 14:33:39;;;;;;;0.00;0.00;;;17.20;76.20;;;;;;4013493;29;20125;-63
2022/11/02 14:36:37;;;;;;;0.00;0.00;;;17.30;76.80;;;;;;4013949;29;20282;-63
2022/11/02 14:39:27;;;;;;;0.52;0.52;;;17.20;75.60;;;;;;4014005;29;20048;-63